Eccles, United Kingdom
Current Conditions -  °F | °C
As of 1:20 AM on Wednesday 26 Nov 2014 (Local Time) from EGCC Reporting Station
Rain Showers Rain Showers  
Wind Chill: 38°   Ceiling: 4100
Heat Index: 43°   Visibility: 5mi
Dew Point: 41°   Wind: 8mph
Humidity: 93%   Direction: 60°ENE
Pressure: 30.03"   Gusts: NA
Location:  53.48°N, 2.38°W
Report Text: EGCC 260120Z 06007KT 8000 SHRA FEW029TCU SCT035 BKN041 06/05 Q1017
Loading
Personal Weather Stations






























Interactive Weather Map New forecast layout! Learn more

10-Day Weather Forecast

Advertisements
Track Severe Weather on mobile